sensor_id;sensor_type;location;lat;lon;timestamp;pressure;altitude;pressure_sealevel;temperature;humidity
45467;BME280;31212;49.734;8.490;2023-04-19T00:01:29;101092.44;;;9.59;73.90
45467;BME280;31212;49.734;8.490;2023-04-19T00:03:56;101089.94;;;9.63;73.75
45467;BME280;31212;49.734;8.490;2023-04-19T00:06:22;101090.72;;;9.58;74.16
45467;BME280;31212;49.734;8.490;2023-04-19T00:08:50;101080.41;;;9.62;73.72
45467;BME280;31212;49.734;8.490;2023-04-19T00:11:18;101091.59;;;9.59;73.87
45467;BME280;31212;49.734;8.490;2023-04-19T00:13:44;101088.97;;;9.57;74.13
45467;BME280;31212;49.734;8.490;2023-04-19T00:16:11;101083.75;;;9.54;74.26
45467;BME280;31212;49.734;8.490;2023-04-19T00:18:37;101088.97;;;9.57;73.91
45467;BME280;31212;49.734;8.490;2023-04-19T00:21:04;101085.50;;;9.57;74.42
45467;BME280;31212;49.734;8.490;2023-04-19T00:23:31;101071.63;;;9.53;73.96
45467;BME280;31212;49.734;8.490;2023-04-19T00:25:57;101088.84;;;9.51;74.50
45467;BME280;31212;49.734;8.490;2023-04-19T00:28:25;101084.53;;;9.50;74.10
45467;BME280;31212;49.734;8.490;2023-04-19T00:30:52;101094.94;;;9.53;74.35
45467;BME280;31212;49.734;8.490;2023-04-19T00:33:18;101068.28;;;9.62;73.71
45467;BME280;31212;49.734;8.490;2023-04-19T00:35:45;101081.19;;;9.57;74.18
45467;BME280;31212;49.734;8.490;2023-04-19T00:38:12;101105.34;;;9.56;74.19
45467;BME280;31212;49.734;8.490;2023-04-19T00:40:38;101111.47;;;9.58;74.67
45467;BME280;31212;49.734;8.490;2023-04-19T00:43:05;101100.13;;;9.53;74.76
45467;BME280;31212;49.734;8.490;2023-04-19T00:45:34;101094.03;;;9.51;74.50
45467;BME280;31212;49.734;8.490;2023-04-19T00:48:02;101102.66;;;9.50;74.52
45467;BME280;31212;49.734;8.490;2023-04-19T00:50:28;101095.72;;;9.49;74.62
45467;BME280;31212;49.734;8.490;2023-04-19T00:52:56;101099.19;;;9.50;74.78
45467;BME280;31212;49.734;8.490;2023-04-19T00:55:24;101104.31;;;9.47;74.79
45467;BME280;31212;49.734;8.490;2023-04-19T00:57:50;101108.66;;;9.46;75.07
45467;BME280;31212;49.734;8.490;2023-04-19T01:00:17;101108.69;;;9.49;75.11
45467;BME280;31212;49.734;8.490;2023-04-19T01:02:45;101113.75;;;9.43;75.14
45467;BME280;31212;49.734;8.490;2023-04-19T01:05:12;101099.13;;;9.47;74.70
45467;BME280;31212;49.734;8.490;2023-04-19T01:07:39;101103.47;;;9.46;75.34
45467;BME280;31212;49.734;8.490;2023-04-19T01:10:06;101110.28;;;9.42;75.18
45467;BME280;31212;49.734;8.490;2023-04-19T01:12:33;101111.09;;;9.40;75.45
45467;BME280;31212;49.734;8.490;2023-04-19T01:15:00;101122.28;;;9.37;75.25
45467;BME280;31212;49.734;8.490;2023-04-19T01:17:27;101125.78;;;9.39;75.63
45467;BME280;31212;49.734;8.490;2023-04-19T01:19:59;101118.88;;;9.40;75.49
45467;BME280;31212;49.734;8.490;2023-04-19T01:22:27;101107.66;;;9.39;75.49
45467;BME280;31212;49.734;8.490;2023-04-19T01:24:54;101116.22;;;9.37;75.54
45467;BME280;31212;49.734;8.490;2023-04-19T01:27:21;101123.19;;;9.39;75.19
45467;BME280;31212;49.734;8.490;2023-04-19T01:29:49;101111.06;;;9.37;74.99
45467;BME280;31212;49.734;8.490;2023-04-19T01:32:16;101103.34;;;9.41;75.31
45467;BME280;31212;49.734;8.490;2023-04-19T01:34:42;101102.38;;;9.36;75.45
45467;BME280;31212;49.734;8.490;2023-04-19T01:37:09;101111.91;;;9.37;75.89
45467;BME280;31212;49.734;8.490;2023-04-19T01:39:37;101114.44;;;9.33;76.01
45467;BME280;31212;49.734;8.490;2023-04-19T01:42:03;101110.13;;;9.35;76.30
45467;BME280;31212;49.734;8.490;2023-04-19T01:44:30;101113.66;;;9.37;75.80
45467;BME280;31212;49.734;8.490;2023-04-19T01:46:58;101104.97;;;9.36;75.64
45467;BME280;31212;49.734;8.490;2023-04-19T01:49:25;101098.09;;;9.37;75.58
45467;BME280;31212;49.734;8.490;2023-04-19T01:51:51;101103.31;;;9.40;75.54
45467;BME280;31212;49.734;8.490;2023-04-19T01:54:19;101095.50;;;9.37;75.62
45467;BME280;31212;49.734;8.490;2023-04-19T01:56:49;101092.03;;;9.36;75.64
45467;BME280;31212;49.734;8.490;2023-04-19T01:59:16;101098.06;;;9.35;75.72
45467;BME280;31212;49.734;8.490;2023-04-19T02:01:42;101101.41;;;9.31;76.29
45467;BME280;31212;49.734;8.490;2023-04-19T02:04:09;101096.22;;;9.31;76.21
45467;BME280;31212;49.734;8.490;2023-04-19T02:06:35;101097.19;;;9.35;76.09
45467;BME280;31212;49.734;8.490;2023-04-19T02:09:03;101080.00;;;9.40;75.94
45467;BME280;31212;49.734;8.490;2023-04-19T02:11:29;101076.47;;;9.36;76.11
45467;BME280;31212;49.734;8.490;2023-04-19T02:13:57;101081.56;;;9.30;76.17
45467;BME280;31212;49.734;8.490;2023-04-19T02:16:25;101085.06;;;9.34;75.91
45467;BME280;31212;49.734;8.490;2023-04-19T02:18:52;101089.31;;;9.29;76.40
45467;BME280;31212;49.734;8.490;2023-04-19T02:21:19;101089.34;;;9.32;76.17
45467;BME280;31212;49.734;8.490;2023-04-19T02:23:46;101084.97;;;9.28;76.64
45467;BME280;31212;49.734;8.490;2023-04-19T02:26:12;101085.78;;;9.25;76.75
45467;BME280;31212;49.734;8.490;2023-04-19T02:28:41;101099.47;;;9.18;76.79
45467;BME280;31212;49.734;8.490;2023-04-19T02:31:09;101095.13;;;9.18;76.80
45467;BME280;31212;49.734;8.490;2023-04-19T02:33:36;101106.44;;;9.22;77.27
45467;BME280;31212;49.734;8.490;2023-04-19T02:36:03;101112.34;;;9.16;77.13
45467;BME280;31212;49.734;8.490;2023-04-19T02:38:29;101110.63;;;9.15;77.11
45467;BME280;31212;49.734;8.490;2023-04-19T02:40:56;101110.69;;;9.18;77.30
45467;BME280;31212;49.734;8.490;2023-04-19T02:43:22;101117.50;;;9.15;77.45
45467;BME280;31212;49.734;8.490;2023-04-19T02:45:49;101118.31;;;9.12;77.51
45467;BME280;31212;49.734;8.490;2023-04-19T02:48:17;101119.19;;;9.11;77.51
45467;BME280;31212;49.734;8.490;2023-04-19T02:50:44;101129.47;;;9.09;77.95
45467;BME280;31212;49.734;8.490;2023-04-19T02:53:10;101123.41;;;9.07;78.06
45467;BME280;31212;49.734;8.490;2023-04-19T02:55:37;101131.13;;;9.04;78.27
45467;BME280;31212;49.734;8.490;2023-04-19T02:58:13;101147.50;;;9.03;78.63
45467;BME280;31212;49.734;8.490;2023-04-19T03:00:52;101136.19;;;9.00;78.58
45467;BME280;31212;49.734;8.490;2023-04-19T03:03:22;101147.47;;;9.02;78.85
45467;BME280;31212;49.734;8.490;2023-04-19T03:05:48;101152.66;;;9.02;79.03
45467;BME280;31212;49.734;8.490;2023-04-19T03:08:15;101142.28;;;9.02;79.02
45467;BME280;31212;49.734;8.490;2023-04-19T03:10:43;101137.09;;;9.00;78.96
45467;BME280;31212;49.734;8.490;2023-04-19T03:13:09;101137.88;;;8.96;79.43
45467;BME280;31212;49.734;8.490;2023-04-19T03:15:36;101131.78;;;8.96;78.83
45467;BME280;31212;49.734;8.490;2023-04-19T03:18:03;101130.97;;;8.97;79.33
45467;BME280;31212;49.734;8.490;2023-04-19T03:20:31;101129.22;;;8.97;79.20
45467;BME280;31212;49.734;8.490;2023-04-19T03:22:58;101124.94;;;8.98;79.07
45467;BME280;31212;49.734;8.490;2023-04-19T03:25:26;101123.19;;;8.97;79.23
45467;BME280;31212;49.734;8.490;2023-04-19T03:28:02;101129.19;;;8.96;79.41
45467;BME280;31212;49.734;8.490;2023-04-19T03:30:55;101124.81;;;8.93;79.79
45467;BME280;31212;49.734;8.490;2023-04-19T03:33:21;101129.97;;;8.91;79.81
45467;BME280;31212;49.734;8.490;2023-04-19T03:35:49;101134.31;;;8.92;79.37
45467;BME280;31212;49.734;8.490;2023-04-19T03:38:16;101140.28;;;8.88;79.76
45467;BME280;31212;49.734;8.490;2023-04-19T03:40:43;101140.19;;;8.85;80.05
45467;BME280;31212;49.734;8.490;2023-04-19T03:43:13;101132.34;;;8.81;80.34
45467;BME280;31212;49.734;8.490;2023-04-19T03:45:39;101133.25;;;8.83;80.42
45467;BME280;31212;49.734;8.490;2023-04-19T03:48:07;101129.78;;;8.82;80.68
45467;BME280;31212;49.734;8.490;2023-04-19T03:50:33;101122.72;;;8.75;80.81
45467;BME280;31212;49.734;8.490;2023-04-19T03:53:02;101130.28;;;8.66;81.11
45467;BME280;31212;49.734;8.490;2023-04-19T03:55:29;101139.66;;;8.61;81.37
45467;BME280;31212;49.734;8.490;2023-04-19T03:57:56;101137.09;;;8.62;81.62
45467;BME280;31212;49.734;8.490;2023-04-19T04:00:39;101135.41;;;8.63;81.75
45467;BME280;31212;49.734;8.490;2023-04-19T04:03:06;101135.44;;;8.64;81.87
45467;BME280;31212;49.734;8.490;2023-04-19T04:05:33;101139.69;;;8.62;81.94
45467;BME280;31212;49.734;8.490;2023-04-19T04:08:01;101146.66;;;8.65;82.35
45467;BME280;31212;49.734;8.490;2023-04-19T04:10:28;101137.22;;;8.67;82.10
45467;BME280;31212;49.734;8.490;2023-04-19T04:12:55;101148.44;;;8.67;82.19
45467;BME280;31212;49.734;8.490;2023-04-19T04:15:28;101145.06;;;8.71;82.10
45467;BME280;31212;49.734;8.490;2023-04-19T04:17:57;101139.06;;;8.72;82.21
45467;BME280;31212;49.734;8.490;2023-04-19T04:20:25;101139.06;;;8.72;82.12
45467;BME280;31212;49.734;8.490;2023-04-19T04:22:58;101141.63;;;8.71;82.25
45467;BME280;31212;49.734;8.490;2023-04-19T04:25:26;101140.00;;;8.76;81.92
45467;BME280;31212;49.734;8.490;2023-04-19T04:27:54;101142.50;;;8.73;82.11
45467;BME280;31212;49.734;8.490;2023-04-19T04:30:23;101144.28;;;8.74;82.45
45467;BME280;31212;49.734;8.490;2023-04-19T04:32:51;101152.97;;;8.76;82.53
45467;BME280;31212;49.734;8.490;2023-04-19T04:35:18;101143.41;;;8.73;82.47
45467;BME280;31212;49.734;8.490;2023-04-19T04:37:54;101152.03;;;8.74;82.65
45467;BME280;31212;49.734;8.490;2023-04-19T04:40:22;101152.03;;;8.74;82.40
45467;BME280;31212;49.734;8.490;2023-04-19T04:42:49;101156.44;;;8.78;82.74
45467;BME280;31212;49.734;8.490;2023-04-19T04:45:17;101159.06;;;8.80;82.64
45467;BME280;31212;49.734;8.490;2023-04-19T04:47:44;101160.78;;;8.79;82.74
45467;BME280;31212;49.734;8.490;2023-04-19T04:50:12;101161.69;;;8.81;82.80
45467;BME280;31212;49.734;8.490;2023-04-19T04:52:40;101163.47;;;8.84;82.95
45467;BME280;31212;49.734;8.490;2023-04-19T04:55:10;101153.22;;;8.88;82.98
45467;BME280;31212;49.734;8.490;2023-04-19T04:57:41;101148.84;;;8.86;82.54
45467;BME280;31212;49.734;8.490;2023-04-19T05:00:16;101151.47;;;8.87;82.56
45467;BME280;31212;49.734;8.490;2023-04-19T05:02:52;101142.09;;;8.92;82.34
45467;BME280;31212;49.734;8.490;2023-04-19T05:05:19;101133.44;;;8.92;82.48
45467;BME280;31212;49.734;8.490;2023-04-19T05:07:47;101136.97;;;8.96;82.43
45467;BME280;31212;49.734;8.490;2023-04-19T05:10:14;101137.91;;;8.98;82.56
45467;BME280;31212;49.734;8.490;2023-04-19T05:12:46;101147.59;;;9.08;82.35
45467;BME280;31212;49.734;8.490;2023-04-19T05:15:12;101130.47;;;9.15;82.06
45467;BME280;31212;49.734;8.490;2023-04-19T05:17:45;101135.75;;;9.19;82.36
45467;BME280;31212;49.734;8.490;2023-04-19T05:20:12;101135.03;;;9.26;82.16
45467;BME280;31212;49.734;8.490;2023-04-19T05:22:40;101129.00;;;9.28;81.78
45467;BME280;31212;49.734;8.490;2023-04-19T05:25:09;101124.69;;;9.28;82.07
45467;BME280;31212;49.734;8.490;2023-04-19T05:27:36;101124.78;;;9.33;81.84
45467;BME280;31212;49.734;8.490;2023-04-19T05:30:05;101125.59;;;9.30;81.64
45467;BME280;31212;49.734;8.490;2023-04-19T05:32:34;101121.66;;;9.49;81.43
45467;BME280;31212;49.734;8.490;2023-04-19T05:35:05;101119.75;;;9.42;81.82
45467;BME280;31212;49.734;8.490;2023-04-19T05:37:31;101118.22;;;9.50;81.91
45467;BME280;31212;49.734;8.490;2023-04-19T05:39:58;101129.88;;;9.74;81.69
45467;BME280;31212;49.734;8.490;2023-04-19T05:42:24;101095.50;;;9.86;80.90
45467;BME280;31212;49.734;8.490;2023-04-19T05:44:51;101093.13;;;10.00;80.81
45467;BME280;31212;49.734;8.490;2023-04-19T05:47:18;101084.66;;;10.08;80.19
45467;BME280;31212;49.734;8.490;2023-04-19T05:50:12;101077.00;;;10.18;80.33
45467;BME280;31212;49.734;8.490;2023-04-19T05:52:46;101059.88;;;10.29;79.92
45467;BME280;31212;49.734;8.490;2023-04-19T05:55:13;101048.53;;;10.24;79.38
45467;BME280;31212;49.734;8.490;2023-04-19T05:57:43;101059.19;;;10.38;79.17
45467;BME280;31212;49.734;8.490;2023-04-19T06:00:10;101057.63;;;10.52;79.41
45467;BME280;31212;49.734;8.490;2023-04-19T06:02:47;101048.19;;;10.59;78.96
45467;BME280;31212;49.734;8.490;2023-04-19T06:05:16;101045.41;;;10.42;78.80
45467;BME280;31212;49.734;8.490;2023-04-19T06:07:42;101051.59;;;10.53;78.52
45467;BME280;31212;49.734;8.490;2023-04-19T06:10:09;101058.94;;;10.84;78.71
45467;BME280;31212;49.734;8.490;2023-04-19T06:12:36;101023.75;;;11.12;77.85
45467;BME280;31212;49.734;8.490;2023-04-19T06:15:03;100985.41;;;10.92;76.66
45467;BME280;31212;49.734;8.490;2023-04-19T06:17:30;101009.25;;;11.36;76.32
45467;BME280;31212;49.734;8.490;2023-04-19T06:19:57;100955.59;;;11.47;75.59
45467;BME280;31212;49.734;8.490;2023-04-19T06:22:25;100949.34;;;11.25;75.42
45467;BME280;31212;49.734;8.490;2023-04-19T06:24:51;100981.13;;;10.94;76.37
45467;BME280;31212;49.734;8.490;2023-04-19T06:27:18;101015.63;;;10.84;76.83
45467;BME280;31212;49.734;8.490;2023-04-19T06:29:44;100988.59;;;11.53;76.29
45467;BME280;31212;49.734;8.490;2023-04-19T06:32:11;100943.91;;;12.05;74.94
45467;BME280;31212;49.734;8.490;2023-04-19T06:34:37;100891.13;;;12.37;72.97
45467;BME280;31212;49.734;8.490;2023-04-19T06:37:04;100870.38;;;12.68;72.28
45467;BME280;31212;49.734;8.490;2023-04-19T06:39:31;100836.47;;;13.71;70.36
45467;BME280;31212;49.734;8.490;2023-04-19T06:41:58;100754.59;;;13.94;68.66
45467;BME280;31212;49.734;8.490;2023-04-19T06:44:24;100731.28;;;13.51;68.29
45467;BME280;31212;49.734;8.490;2023-04-19T06:46:51;100794.81;;;12.92;69.57
45467;BME280;31212;49.734;8.490;2023-04-19T06:49:17;100808.72;;;12.79;70.22
45467;BME280;31212;49.734;8.490;2023-04-19T06:51:44;100806.06;;;12.39;71.03
45467;BME280;31212;49.734;8.490;2023-04-19T06:54:10;100870.84;;;11.74;72.51
45467;BME280;31212;49.734;8.490;2023-04-19T06:56:43;100914.75;;;13.20;72.07
45467;BME280;31212;49.734;8.490;2023-04-19T06:59:11;100812.19;;;12.98;70.32
45467;BME280;31212;49.734;8.490;2023-04-19T07:01:38;100815.56;;;12.18;70.52
45467;BME280;31212;49.734;8.490;2023-04-19T07:04:05;100864.84;;;11.87;71.71
45467;BME280;31212;49.734;8.490;2023-04-19T07:06:32;100897.88;;;11.94;72.48
45467;BME280;31212;49.734;8.490;2023-04-19T07:08:59;100900.28;;;11.71;72.60
45467;BME280;31212;49.734;8.490;2023-04-19T07:11:25;100924.72;;;11.90;73.20
45467;BME280;31212;49.734;8.490;2023-04-19T07:13:53;100911.66;;;11.84;72.81
45467;BME280;31212;49.734;8.490;2023-04-19T07:16:20;100907.25;;;11.74;72.74
45467;BME280;31212;49.734;8.490;2023-04-19T07:18:47;100928.59;;;11.30;73.64
45467;BME280;31212;49.734;8.490;2023-04-19T07:21:13;100946.94;;;11.48;73.81
45467;BME280;31212;49.734;8.490;2023-04-19T07:23:40;100932.19;;;11.47;73.44
45467;BME280;31212;49.734;8.490;2023-04-19T07:26:07;100919.00;;;11.19;73.91
45467;BME280;31212;49.734;8.490;2023-04-19T07:28:33;100949.19;;;11.08;74.26
45467;BME280;31212;49.734;8.490;2023-04-19T07:31:01;100969.22;;;11.20;74.57
45467;BME280;31212;49.734;8.490;2023-04-19T07:33:28;100962.31;;;11.20;74.85
45467;BME280;31212;49.734;8.490;2023-04-19T07:35:55;100952.91;;;11.36;74.53
45467;BME280;31212;49.734;8.490;2023-04-19T07:38:21;100914.06;;;11.53;74.19
45467;BME280;31212;49.734;8.490;2023-04-19T07:40:49;100904.88;;;12.03;73.44
45467;BME280;31212;49.734;8.490;2023-04-19T07:43:15;100878.56;;;11.57;72.54
45467;BME280;31212;49.734;8.490;2023-04-19T07:45:42;100879.56;;;11.82;72.56
45467;BME280;31212;49.734;8.490;2023-04-19T07:48:10;100845.88;;;12.02;71.85
45467;BME280;31212;49.734;8.490;2023-04-19T07:50:36;100836.31;;;12.00;71.17
45467;BME280;31212;49.734;8.490;2023-04-19T07:53:03;100825.97;;;12.15;71.08
45467;BME280;31212;49.734;8.490;2023-04-19T07:55:30;100822.63;;;12.84;70.45
45467;BME280;31212;49.734;8.490;2023-04-19T07:57:56;100720.09;;;13.02;68.54
45467;BME280;31212;49.734;8.490;2023-04-19T08:00:23;100681.94;;;12.56;68.12
45467;BME280;31212;49.734;8.490;2023-04-19T08:02:49;100648.09;;;12.72;67.13
45467;BME280;31212;49.734;8.490;2023-04-19T08:05:17;100650.63;;;12.95;66.89
45467;BME280;31212;49.734;8.490;2023-04-19T08:07:44;100611.56;;;12.93;66.34
45467;BME280;31212;49.734;8.490;2023-04-19T08:10:11;100595.78;;;13.26;65.70
45467;BME280;31212;49.734;8.490;2023-04-19T08:12:38;100535.59;;;13.65;64.10
45467;BME280;31212;49.734;8.490;2023-04-19T08:15:06;100500.03;;;13.53;63.60
45467;BME280;31212;49.734;8.490;2023-04-19T08:17:34;100487.66;;;13.75;63.08
45467;BME280;31212;49.734;8.490;2023-04-19T08:20:00;100458.03;;;13.84;62.22
45467;BME280;31212;49.734;8.490;2023-04-19T08:22:29;100447.16;;;13.26;62.50
45467;BME280;31212;49.734;8.490;2023-04-19T08:24:56;100492.72;;;12.51;64.08
45467;BME280;31212;49.734;8.490;2023-04-19T08:27:22;100530.81;;;12.83;64.15
45467;BME280;31212;49.734;8.490;2023-04-19T08:29:51;100499.59;;;12.75;63.64
45467;BME280;31212;49.734;8.490;2023-04-19T08:32:17;100516.22;;;12.34;64.40
45467;BME280;31212;49.734;8.490;2023-04-19T08:34:44;100533.59;;;12.27;64.37
45467;BME280;31212;49.734;8.490;2023-04-19T08:37:11;100537.84;;;12.57;64.20
45467;BME280;31212;49.734;8.490;2023-04-19T08:39:39;100474.53;;;12.48;63.35
45467;BME280;31212;49.734;8.490;2023-04-19T08:42:07;100495.34;;;12.54;63.20
45467;BME280;31212;49.734;8.490;2023-04-19T08:44:35;100490.03;;;12.77;63.39
45467;BME280;31212;49.734;8.490;2023-04-19T08:47:02;100473.50;;;12.76;62.83
45467;BME280;31212;49.734;8.490;2023-04-19T08:49:30;100483.16;;;12.62;62.83
45467;BME280;31212;49.734;8.490;2023-04-19T08:52:00;100469.31;;;12.54;63.42
45467;BME280;31212;49.734;8.490;2023-04-19T08:54:28;100494.50;;;12.33;64.15
45467;BME280;31212;49.734;8.490;2023-04-19T08:56:57;100535.22;;;12.60;63.90
45467;BME280;31212;49.734;8.490;2023-04-19T08:59:24;100507.81;;;13.57;62.37
45467;BME280;31212;49.734;8.490;2023-04-19T09:01:51;100427.78;;;13.62;61.37
45467;BME280;31212;49.734;8.490;2023-04-19T09:04:18;100379.41;;;13.20;61.09
45467;BME280;31212;49.734;8.490;2023-04-19T09:06:45;100402.84;;;13.27;61.18
45467;BME280;31212;49.734;8.490;2023-04-19T09:09:16;100454.06;;;13.39;61.80
45467;BME280;31212;49.734;8.490;2023-04-19T09:11:43;100435.84;;;13.28;61.64
45467;BME280;31212;49.734;8.490;2023-04-19T09:14:12;100400.56;;;12.83;61.78
45467;BME280;31212;49.734;8.490;2023-04-19T09:16:39;100402.31;;;12.77;61.65
45467;BME280;31212;49.734;8.490;2023-04-19T09:19:06;100438.56;;;13.13;61.69
45467;BME280;31212;49.734;8.490;2023-04-19T09:21:34;100471.63;;;13.03;62.51
45467;BME280;31212;49.734;8.490;2023-04-19T09:24:02;100464.50;;;13.32;62.06
45467;BME280;31212;49.734;8.490;2023-04-19T09:26:28;100460.75;;;13.70;61.59
45467;BME280;31212;49.734;8.490;2023-04-19T09:28:56;100416.44;;;13.67;61.07
45467;BME280;31212;49.734;8.490;2023-04-19T09:31:26;100423.13;;;13.92;60.92
45467;BME280;31212;49.734;8.490;2023-04-19T09:33:53;100397.28;;;14.47;60.10
45467;BME280;31212;49.734;8.490;2023-04-19T09:36:27;100344.47;;;14.22;59.57
45467;BME280;31212;49.734;8.490;2023-04-19T09:38:54;100338.03;;;13.77;59.81
45467;BME280;31212;49.734;8.490;2023-04-19T09:41:20;100366.00;;;14.41;59.53
45467;BME280;31212;49.734;8.490;2023-04-19T09:43:47;100295.16;;;14.62;57.97
45467;BME280;31212;49.734;8.490;2023-04-19T09:46:31;100254.84;;;14.80;57.63
45467;BME280;31212;49.734;8.490;2023-04-19T09:49:16;100243.03;;;15.08;57.08
45467;BME280;31212;49.734;8.490;2023-04-19T09:51:45;100213.84;;;15.31;55.89
45467;BME280;31212;49.734;8.490;2023-04-19T09:54:14;100205.56;;;15.09;56.34
45467;BME280;31212;49.734;8.490;2023-04-19T09:56:41;100166.44;;;15.03;56.03
45467;BME280;31212;49.734;8.490;2023-04-19T09:59:09;100189.47;;;14.82;55.91
45467;BME280;31212;49.734;8.490;2023-04-19T10:01:39;100159.69;;;14.91;55.86
45467;BME280;31212;49.734;8.490;2023-04-19T10:04:09;100189.41;;;15.32;55.60
45467;BME280;31212;49.734;8.490;2023-04-19T10:06:37;100104.34;;;16.30;53.47
45467;BME280;31212;49.734;8.490;2023-04-19T10:09:04;100069.59;;;16.56;52.56
45467;BME280;31212;49.734;8.490;2023-04-19T10:11:34;99958.63;;;17.71;49.21
45467;BME280;31212;49.734;8.490;2023-04-19T10:14:04;99886.59;;;16.71;49.59
45467;BME280;31212;49.734;8.490;2023-04-19T10:16:31;100053.78;;;15.92;52.63
45467;BME280;31212;49.734;8.490;2023-04-19T10:19:00;100018.31;;;16.77;50.95
45467;BME280;31212;49.734;8.490;2023-04-19T10:21:28;99983.66;;;16.68;50.60
45467;BME280;31212;49.734;8.490;2023-04-19T10:23:56;99919.19;;;16.62;49.87
45467;BME280;31212;49.734;8.490;2023-04-19T10:26:23;99963.31;;;16.46;50.54
45467;BME280;31212;49.734;8.490;2023-04-19T10:28:50;100031.50;;;16.10;51.79
45467;BME280;31212;49.734;8.490;2023-04-19T10:31:19;100003.06;;;16.29;51.21
45467;BME280;31212;49.734;8.490;2023-04-19T10:33:48;99999.78;;;15.50;52.17
45467;BME280;31212;49.734;8.490;2023-04-19T10:36:16;99982.53;;;15.43;51.88
45467;BME280;31212;49.734;8.490;2023-04-19T10:38:44;100017.00;;;15.23;52.54
45467;BME280;31212;49.734;8.490;2023-04-19T10:41:12;100030.50;;;16.16;51.30
45467;BME280;31212;49.734;8.490;2023-04-19T10:43:41;99960.81;;;16.73;50.19
45467;BME280;31212;49.734;8.490;2023-04-19T10:46:13;99885.25;;;17.15;48.46
45467;BME280;31212;49.734;8.490;2023-04-19T10:48:49;99831.81;;;16.63;48.28
45467;BME280;31212;49.734;8.490;2023-04-19T10:51:22;99906.97;;;17.98;47.59
45467;BME280;31212;49.734;8.490;2023-04-19T10:53:54;99770.88;;;19.79;43.90
45467;BME280;31212;49.734;8.490;2023-04-19T10:59:14;99722.19;;;17.75;45.02
45467;BME280;31212;49.734;8.490;2023-04-19T11:01:51;99759.44;;;17.38;45.92
45467;BME280;31212;49.734;8.490;2023-04-19T11:04:20;99796.03;;;17.66;45.98
45467;BME280;31212;49.734;8.490;2023-04-19T11:07:01;99706.97;;;17.12;45.56
45467;BME280;31212;49.734;8.490;2023-04-19T11:09:31;99716.50;;;16.88;45.51
45467;BME280;31212;49.734;8.490;2023-04-19T11:12:00;99678.94;;;18.73;42.96
45467;BME280;31212;49.734;8.490;2023-04-19T11:14:30;99526.38;;;19.70;39.81
45467;BME280;31212;49.734;8.490;2023-04-19T11:16:57;99523.69;;;19.15;39.91
45467;BME280;31212;49.734;8.490;2023-04-19T11:19:24;99433.22;;;17.59;40.49
45467;BME280;31212;49.734;8.490;2023-04-19T11:21:50;99558.41;;;17.57;41.03
45467;BME280;31212;49.734;8.490;2023-04-19T11:24:18;99659.31;;;18.18;41.98
45467;BME280;31212;49.734;8.490;2023-04-19T11:26:45;99471.00;;;17.55;40.01
45467;BME280;31212;49.734;8.490;2023-04-19T11:29:12;99627.66;;;16.80;42.81
45467;BME280;31212;49.734;8.490;2023-04-19T11:31:39;99572.50;;;16.58;42.23
45467;BME280;31212;49.734;8.490;2023-04-19T11:34:06;99569.19;;;16.78;42.00
45467;BME280;31212;49.734;8.490;2023-04-19T11:36:32;99530.47;;;15.56;42.69
45467;BME280;31212;49.734;8.490;2023-04-19T11:39:01;99559.44;;;16.06;42.65
45467;BME280;31212;49.734;8.490;2023-04-19T11:41:37;99612.72;;;16.57;42.44
45467;BME280;31212;49.734;8.490;2023-04-19T11:44:12;99601.94;;;16.92;42.03
45467;BME280;31212;49.734;8.490;2023-04-19T11:46:38;99565.03;;;16.98;41.45
45467;BME280;31212;49.734;8.490;2023-04-19T11:49:05;99569.69;;;16.64;42.03
45467;BME280;31212;49.734;8.490;2023-04-19T11:51:31;99580.00;;;16.69;42.02
45467;BME280;31212;49.734;8.490;2023-04-19T11:53:58;99560.63;;;17.22;41.26
45467;BME280;31212;49.734;8.490;2023-04-19T11:56:24;99499.88;;;17.55;40.01
45467;BME280;31212;49.734;8.490;2023-04-19T11:58:56;99528.38;;;17.64;40.46
45467;BME280;31212;49.734;8.490;2023-04-19T12:01:22;99495.19;;;17.84;39.68
45467;BME280;31212;49.734;8.490;2023-04-19T12:03:51;99596.47;;;18.55;40.34
45467;BME280;31212;49.734;8.490;2023-04-19T12:06:22;99518.69;;;18.51;39.48
45467;BME280;31212;49.734;8.490;2023-04-19T12:08:49;99457.28;;;18.52;38.62
45467;BME280;31212;49.734;8.490;2023-04-19T12:11:19;99510.88;;;18.89;39.03
45467;BME280;31212;49.734;8.490;2023-04-19T12:13:47;99520.72;;;18.44;39.62
45467;BME280;31212;49.734;8.490;2023-04-19T12:16:26;99458.97;;;18.33;39.04
45467;BME280;31212;49.734;8.490;2023-04-19T12:18:53;99498.00;;;19.02;38.51
45467;BME280;31212;49.734;8.490;2023-04-19T12:21:24;99387.88;;;18.56;37.78
45467;BME280;31212;49.734;8.490;2023-04-19T12:23:53;99379.94;;;17.78;38.44
45467;BME280;31212;49.734;8.490;2023-04-19T12:26:20;99525.44;;;17.94;40.15
45467;BME280;31212;49.734;8.490;2023-04-19T12:28:46;99438.25;;;17.21;39.88
45467;BME280;31212;49.734;8.490;2023-04-19T12:31:14;99394.59;;;16.98;39.13
45467;BME280;31212;49.734;8.490;2023-04-19T12:33:41;99458.56;;;17.81;39.13
45467;BME280;31212;49.734;8.490;2023-04-19T12:36:07;99401.41;;;18.48;37.65
45467;BME280;31212;49.734;8.490;2023-04-19T12:38:34;99339.88;;;18.33;36.95
45467;BME280;31212;49.734;8.490;2023-04-19T12:41:00;99382.28;;;18.44;37.45
45467;BME280;31212;49.734;8.490;2023-04-19T12:43:27;99386.19;;;18.93;36.71
45467;BME280;31212;49.734;8.490;2023-04-19T12:45:54;99225.03;;;18.72;35.28
45467;BME280;31212;49.734;8.490;2023-04-19T12:48:23;99268.91;;;18.52;36.03
45467;BME280;31212;49.734;8.490;2023-04-19T12:50:50;99334.19;;;17.83;37.37
45467;BME280;31212;49.734;8.490;2023-04-19T12:53:17;99317.44;;;18.26;36.66
45467;BME280;31212;49.734;8.490;2023-04-19T12:55:44;99266.13;;;18.55;35.78
45467;BME280;31212;49.734;8.490;2023-04-19T12:58:11;99301.63;;;18.83;35.81
45467;BME280;31212;49.734;8.490;2023-04-19T13:00:38;99156.19;;;18.81;34.11
45467;BME280;31212;49.734;8.490;2023-04-19T13:03:04;99219.25;;;19.17;34.48
45467;BME280;31212;49.734;8.490;2023-04-19T13:05:33;99103.63;;;18.98;33.37